sensor_id;sensor_type;location;lat;lon;timestamp;temperature;humidity
47162;DHT22;32921;53.256;8.198;2024-03-22T00:00:06;9.10;99.90
47162;DHT22;32921;53.256;8.198;2024-03-22T00:02:34;9.00;99.90
47162;DHT22;32921;53.256;8.198;2024-03-22T00:04:59;9.10;99.90
47162;DHT22;32921;53.256;8.198;2024-03-22T00:07:25;9.10;99.90
47162;DHT22;32921;53.256;8.198;2024-03-22T00:09:51;9.10;99.90
47162;DHT22;32921;53.256;8.198;2024-03-22T00:12:17;9.10;99.90
47162;DHT22;32921;53.256;8.198;2024-03-22T00:14:42;9.10;99.90
47162;DHT22;32921;53.256;8.198;2024-03-22T00:17:08;9.20;99.90
47162;DHT22;32921;53.256;8.198;2024-03-22T00:19:34;9.20;99.90
47162;DHT22;32921;53.256;8.198;2024-03-22T00:22:00;9.10;99.90
47162;DHT22;32921;53.256;8.198;2024-03-22T00:24:26;9.20;99.90
47162;DHT22;32921;53.256;8.198;2024-03-22T00:26:51;9.20;99.90
47162;DHT22;32921;53.256;8.198;2024-03-22T00:29:17;9.30;99.90
47162;DHT22;32921;53.256;8.198;2024-03-22T00:31:42;9.30;99.90
47162;DHT22;32921;53.256;8.198;2024-03-22T00:34:08;9.20;99.90
47162;DHT22;32921;53.256;8.198;2024-03-22T00:36:33;9.30;99.90
47162;DHT22;32921;53.256;8.198;2024-03-22T00:38:59;9.20;99.90
47162;DHT22;32921;53.256;8.198;2024-03-22T00:41:25;9.20;99.90
47162;DHT22;32921;53.256;8.198;2024-03-22T00:43:50;9.20;99.90
47162;DHT22;32921;53.256;8.198;2024-03-22T00:46:16;9.30;99.90
47162;DHT22;32921;53.256;8.198;2024-03-22T00:48:41;9.30;99.90
47162;DHT22;32921;53.256;8.198;2024-03-22T00:51:07;9.30;99.90
47162;DHT22;32921;53.256;8.198;2024-03-22T00:53:32;9.30;99.90
47162;DHT22;32921;53.256;8.198;2024-03-22T00:55:58;9.30;99.90
47162;DHT22;32921;53.256;8.198;2024-03-22T00:58:28;9.40;99.90
47162;DHT22;32921;53.256;8.198;2024-03-22T01:00:54;9.40;99.90
47162;DHT22;32921;53.256;8.198;2024-03-22T01:03:20;9.40;99.90
47162;DHT22;32921;53.256;8.198;2024-03-22T01:05:46;9.40;99.90
47162;DHT22;32921;53.256;8.198;2024-03-22T01:08:12;9.40;99.90
47162;DHT22;32921;53.256;8.198;2024-03-22T01:10:38;9.40;99.90
47162;DHT22;32921;53.256;8.198;2024-03-22T01:13:03;9.40;99.90
47162;DHT22;32921;53.256;8.198;2024-03-22T01:15:29;9.40;99.90
47162;DHT22;32921;53.256;8.198;2024-03-22T01:17:55;9.40;99.90
47162;DHT22;32921;53.256;8.198;2024-03-22T01:20:21;9.40;99.90
47162;DHT22;32921;53.256;8.198;2024-03-22T01:22:46;9.30;99.90
47162;DHT22;32921;53.256;8.198;2024-03-22T01:25:12;9.30;99.90
47162;DHT22;32921;53.256;8.198;2024-03-22T01:27:37;9.30;99.90
47162;DHT22;32921;53.256;8.198;2024-03-22T01:30:04;9.30;99.90
47162;DHT22;32921;53.256;8.198;2024-03-22T01:32:30;9.30;99.90
47162;DHT22;32921;53.256;8.198;2024-03-22T01:34:57;9.20;99.90
47162;DHT22;32921;53.256;8.198;2024-03-22T01:37:22;9.20;99.90
47162;DHT22;32921;53.256;8.198;2024-03-22T01:39:48;9.30;99.90
47162;DHT22;32921;53.256;8.198;2024-03-22T01:42:13;9.30;99.90
47162;DHT22;32921;53.256;8.198;2024-03-22T01:44:39;9.30;99.90
47162;DHT22;32921;53.256;8.198;2024-03-22T01:47:05;9.40;99.90
47162;DHT22;32921;53.256;8.198;2024-03-22T01:49:30;9.40;99.90
47162;DHT22;32921;53.256;8.198;2024-03-22T01:51:56;9.40;99.90
47162;DHT22;32921;53.256;8.198;2024-03-22T01:54:22;9.50;99.90
47162;DHT22;32921;53.256;8.198;2024-03-22T01:56:47;9.50;99.90
47162;DHT22;32921;53.256;8.198;2024-03-22T01:59:14;9.50;99.90
47162;DHT22;32921;53.256;8.198;2024-03-22T02:01:40;9.50;99.90
47162;DHT22;32921;53.256;8.198;2024-03-22T02:04:06;9.50;99.90
47162;DHT22;32921;53.256;8.198;2024-03-22T02:06:32;9.50;99.90
47162;DHT22;32921;53.256;8.198;2024-03-22T02:08:58;9.60;99.90
47162;DHT22;32921;53.256;8.198;2024-03-22T02:11:25;9.60;99.90
47162;DHT22;32921;53.256;8.198;2024-03-22T02:13:51;9.50;99.90
47162;DHT22;32921;53.256;8.198;2024-03-22T02:16:16;9.60;99.90
47162;DHT22;32921;53.256;8.198;2024-03-22T02:18:42;9.60;99.90
47162;DHT22;32921;53.256;8.198;2024-03-22T02:21:09;9.60;99.90
47162;DHT22;32921;53.256;8.198;2024-03-22T02:23:39;9.60;99.90
47162;DHT22;32921;53.256;8.198;2024-03-22T02:26:06;9.60;99.90
47162;DHT22;32921;53.256;8.198;2024-03-22T02:28:32;9.60;99.90
47162;DHT22;32921;53.256;8.198;2024-03-22T02:30:59;9.60;99.90
47162;DHT22;32921;53.256;8.198;2024-03-22T02:33:24;9.60;99.90
47162;DHT22;32921;53.256;8.198;2024-03-22T02:35:50;9.60;99.90
47162;DHT22;32921;53.256;8.198;2024-03-22T02:38:17;9.60;99.90
47162;DHT22;32921;53.256;8.198;2024-03-22T02:40:48;9.60;99.90
47162;DHT22;32921;53.256;8.198;2024-03-22T02:43:14;9.60;99.90
47162;DHT22;32921;53.256;8.198;2024-03-22T02:45:40;9.60;99.90
47162;DHT22;32921;53.256;8.198;2024-03-22T02:48:06;9.60;99.90
47162;DHT22;32921;53.256;8.198;2024-03-22T02:50:36;9.60;99.90
47162;DHT22;32921;53.256;8.198;2024-03-22T02:53:02;9.70;99.90
47162;DHT22;32921;53.256;8.198;2024-03-22T02:55:28;9.70;99.90
47162;DHT22;32921;53.256;8.198;2024-03-22T02:57:55;9.70;99.90
47162;DHT22;32921;53.256;8.198;2024-03-22T03:00:21;9.70;99.90
47162;DHT22;32921;53.256;8.198;2024-03-22T03:02:46;9.70;99.90
47162;DHT22;32921;53.256;8.198;2024-03-22T03:05:12;9.70;99.90
47162;DHT22;32921;53.256;8.198;2024-03-22T03:07:38;9.70;99.90
47162;DHT22;32921;53.256;8.198;2024-03-22T03:10:04;9.70;99.90
47162;DHT22;32921;53.256;8.198;2024-03-22T03:12:29;9.70;99.90
47162;DHT22;32921;53.256;8.198;2024-03-22T03:14:55;9.70;99.90
47162;DHT22;32921;53.256;8.198;2024-03-22T03:17:20;9.70;99.90
47162;DHT22;32921;53.256;8.198;2024-03-22T03:19:46;9.80;99.90
47162;DHT22;32921;53.256;8.198;2024-03-22T03:22:12;9.80;99.90
47162;DHT22;32921;53.256;8.198;2024-03-22T03:24:37;9.80;99.90
47162;DHT22;32921;53.256;8.198;2024-03-22T03:27:03;9.80;99.90
47162;DHT22;32921;53.256;8.198;2024-03-22T03:29:28;9.80;99.90
47162;DHT22;32921;53.256;8.198;2024-03-22T03:31:54;9.80;99.90
47162;DHT22;32921;53.256;8.198;2024-03-22T03:34:20;9.80;99.90
47162;DHT22;32921;53.256;8.198;2024-03-22T03:36:46;9.80;99.90
47162;DHT22;32921;53.256;8.198;2024-03-22T03:39:11;9.90;99.90
47162;DHT22;32921;53.256;8.198;2024-03-22T03:41:37;9.90;99.90
47162;DHT22;32921;53.256;8.198;2024-03-22T03:44:02;9.90;99.90
47162;DHT22;32921;53.256;8.198;2024-03-22T03:46:28;10.00;99.90
47162;DHT22;32921;53.256;8.198;2024-03-22T03:48:54;9.90;99.90
47162;DHT22;32921;53.256;8.198;2024-03-22T03:51:19;10.00;99.90
47162;DHT22;32921;53.256;8.198;2024-03-22T03:53:45;10.00;99.90
47162;DHT22;32921;53.256;8.198;2024-03-22T03:56:10;10.00;99.90
47162;DHT22;32921;53.256;8.198;2024-03-22T03:58:36;10.00;99.90
47162;DHT22;32921;53.256;8.198;2024-03-22T04:01:08;10.00;99.90
47162;DHT22;32921;53.256;8.198;2024-03-22T04:03:34;10.10;99.90
47162;DHT22;32921;53.256;8.198;2024-03-22T04:06:00;10.10;99.90
47162;DHT22;32921;53.256;8.198;2024-03-22T04:08:26;10.10;99.90
47162;DHT22;32921;53.256;8.198;2024-03-22T04:10:56;10.10;99.90
47162;DHT22;32921;53.256;8.198;2024-03-22T04:13:25;10.10;99.90
47162;DHT22;32921;53.256;8.198;2024-03-22T04:15:52;10.10;99.90
47162;DHT22;32921;53.256;8.198;2024-03-22T04:18:18;10.10;99.90
47162;DHT22;32921;53.256;8.198;2024-03-22T04:20:54;10.20;99.90
47162;DHT22;32921;53.256;8.198;2024-03-22T04:23:20;10.20;99.90
47162;DHT22;32921;53.256;8.198;2024-03-22T04:25:56;10.20;99.90
47162;DHT22;32921;53.256;8.198;2024-03-22T04:28:22;10.20;99.90
47162;DHT22;32921;53.256;8.198;2024-03-22T04:30:56;10.30;99.90
47162;DHT22;32921;53.256;8.198;2024-03-22T04:33:21;10.30;99.90
47162;DHT22;32921;53.256;8.198;2024-03-22T04:35:47;10.30;99.90
47162;DHT22;32921;53.256;8.198;2024-03-22T04:38:13;10.30;99.90
47162;DHT22;32921;53.256;8.198;2024-03-22T04:40:39;10.30;99.90
47162;DHT22;32921;53.256;8.198;2024-03-22T04:43:05;10.30;99.90
47162;DHT22;32921;53.256;8.198;2024-03-22T04:45:31;10.30;99.90
47162;DHT22;32921;53.256;8.198;2024-03-22T04:47:56;10.30;99.90
47162;DHT22;32921;53.256;8.198;2024-03-22T04:50:22;10.40;99.90
47162;DHT22;32921;53.256;8.198;2024-03-22T04:52:48;10.40;99.90
47162;DHT22;32921;53.256;8.198;2024-03-22T04:55:13;10.40;99.90
47162;DHT22;32921;53.256;8.198;2024-03-22T04:57:39;10.40;99.90
47162;DHT22;32921;53.256;8.198;2024-03-22T05:00:05;10.40;99.90
47162;DHT22;32921;53.256;8.198;2024-03-22T05:02:33;10.40;99.90
47162;DHT22;32921;53.256;8.198;2024-03-22T05:04:58;10.40;99.90
47162;DHT22;32921;53.256;8.198;2024-03-22T05:07:24;10.40;99.90
47162;DHT22;32921;53.256;8.198;2024-03-22T05:09:50;10.40;99.90
47162;DHT22;32921;53.256;8.198;2024-03-22T05:12:15;10.40;99.90
47162;DHT22;32921;53.256;8.198;2024-03-22T05:14:41;10.40;99.90
47162;DHT22;32921;53.256;8.198;2024-03-22T05:17:06;10.40;99.90
47162;DHT22;32921;53.256;8.198;2024-03-22T05:19:32;10.40;99.90
47162;DHT22;32921;53.256;8.198;2024-03-22T05:21:58;10.50;99.90
47162;DHT22;32921;53.256;8.198;2024-03-22T05:24:24;10.50;99.90
47162;DHT22;32921;53.256;8.198;2024-03-22T05:26:49;10.40;99.90
47162;DHT22;32921;53.256;8.198;2024-03-22T05:29:15;10.50;99.90
47162;DHT22;32921;53.256;8.198;2024-03-22T05:31:48;10.50;99.90
47162;DHT22;32921;53.256;8.198;2024-03-22T05:34:14;10.50;99.90
47162;DHT22;32921;53.256;8.198;2024-03-22T05:36:41;10.40;99.90
47162;DHT22;32921;53.256;8.198;2024-03-22T05:39:06;10.40;99.90
47162;DHT22;32921;53.256;8.198;2024-03-22T05:41:32;10.50;99.90
47162;DHT22;32921;53.256;8.198;2024-03-22T05:43:57;10.50;99.90
47162;DHT22;32921;53.256;8.198;2024-03-22T05:46:23;10.50;99.90
47162;DHT22;32921;53.256;8.198;2024-03-22T05:48:48;10.60;99.90
47162;DHT22;32921;53.256;8.198;2024-03-22T05:51:16;10.50;99.90
47162;DHT22;32921;53.256;8.198;2024-03-22T05:53:42;10.60;99.90
47162;DHT22;32921;53.256;8.198;2024-03-22T05:56:07;10.50;99.90
47162;DHT22;32921;53.256;8.198;2024-03-22T05:58:34;10.40;99.90
47162;DHT22;32921;53.256;8.198;2024-03-22T06:00:59;10.40;99.90
47162;DHT22;32921;53.256;8.198;2024-03-22T06:03:25;10.40;99.90
47162;DHT22;32921;53.256;8.198;2024-03-22T06:05:52;10.40;99.90
47162;DHT22;32921;53.256;8.198;2024-03-22T06:08:20;10.40;99.90
47162;DHT22;32921;53.256;8.198;2024-03-22T06:10:46;10.40;99.90
47162;DHT22;32921;53.256;8.198;2024-03-22T06:13:12;10.40;99.90
47162;DHT22;32921;53.256;8.198;2024-03-22T06:15:37;10.40;99.90
47162;DHT22;32921;53.256;8.198;2024-03-22T06:18:03;10.40;99.90
47162;DHT22;32921;53.256;8.198;2024-03-22T06:20:29;10.50;99.90
47162;DHT22;32921;53.256;8.198;2024-03-22T06:22:56;10.50;99.90
47162;DHT22;32921;53.256;8.198;2024-03-22T06:25:22;10.50;99.90
47162;DHT22;32921;53.256;8.198;2024-03-22T06:27:48;10.60;99.90
47162;DHT22;32921;53.256;8.198;2024-03-22T06:30:13;10.60;99.90
47162;DHT22;32921;53.256;8.198;2024-03-22T06:32:39;10.70;99.90
47162;DHT22;32921;53.256;8.198;2024-03-22T06:35:05;10.70;99.90
47162;DHT22;32921;53.256;8.198;2024-03-22T06:37:31;10.70;99.90
47162;DHT22;32921;53.256;8.198;2024-03-22T06:39:56;10.70;99.90
47162;DHT22;32921;53.256;8.198;2024-03-22T06:42:24;10.70;99.90
47162;DHT22;32921;53.256;8.198;2024-03-22T06:44:49;10.70;99.90
47162;DHT22;32921;53.256;8.198;2024-03-22T06:47:15;10.70;99.90
47162;DHT22;32921;53.256;8.198;2024-03-22T06:49:40;10.60;99.90
47162;DHT22;32921;53.256;8.198;2024-03-22T06:52:06;10.60;99.90
47162;DHT22;32921;53.256;8.198;2024-03-22T06:54:32;10.50;99.90
47162;DHT22;32921;53.256;8.198;2024-03-22T06:56:57;10.50;99.90
47162;DHT22;32921;53.256;8.198;2024-03-22T06:59:23;10.50;99.90
47162;DHT22;32921;53.256;8.198;2024-03-22T07:01:48;10.40;99.90
47162;DHT22;32921;53.256;8.198;2024-03-22T07:04:14;10.40;99.90
47162;DHT22;32921;53.256;8.198;2024-03-22T07:06:40;10.50;99.90
47162;DHT22;32921;53.256;8.198;2024-03-22T07:09:07;10.50;99.90
47162;DHT22;32921;53.256;8.198;2024-03-22T07:11:33;10.60;99.90
47162;DHT22;32921;53.256;8.198;2024-03-22T07:13:58;10.60;99.90
47162;DHT22;32921;53.256;8.198;2024-03-22T07:16:24;10.50;99.90
47162;DHT22;32921;53.256;8.198;2024-03-22T07:18:50;10.50;99.90
47162;DHT22;32921;53.256;8.198;2024-03-22T07:21:15;10.60;99.90
47162;DHT22;32921;53.256;8.198;2024-03-22T07:23:41;10.60;99.90
47162;DHT22;32921;53.256;8.198;2024-03-22T07:26:07;10.50;99.90
47162;DHT22;32921;53.256;8.198;2024-03-22T07:28:33;10.50;99.90
47162;DHT22;32921;53.256;8.198;2024-03-22T07:30:59;10.40;99.90
47162;DHT22;32921;53.256;8.198;2024-03-22T07:33:25;10.40;99.90
47162;DHT22;32921;53.256;8.198;2024-03-22T07:35:50;10.40;99.90
47162;DHT22;32921;53.256;8.198;2024-03-22T07:38:17;10.30;99.90
47162;DHT22;32921;53.256;8.198;2024-03-22T07:40:42;10.30;99.90
47162;DHT22;32921;53.256;8.198;2024-03-22T07:43:08;10.30;99.90
47162;DHT22;32921;53.256;8.198;2024-03-22T07:45:34;10.30;99.90
47162;DHT22;32921;53.256;8.198;2024-03-22T07:48:00;10.30;99.90
47162;DHT22;32921;53.256;8.198;2024-03-22T07:50:25;10.30;99.90
47162;DHT22;32921;53.256;8.198;2024-03-22T07:52:51;10.30;99.90
47162;DHT22;32921;53.256;8.198;2024-03-22T07:55:17;10.30;99.90
47162;DHT22;32921;53.256;8.198;2024-03-22T07:57:42;10.30;99.90
47162;DHT22;32921;53.256;8.198;2024-03-22T08:00:08;10.30;99.90
47162;DHT22;32921;53.256;8.198;2024-03-22T08:02:35;10.30;99.90
47162;DHT22;32921;53.256;8.198;2024-03-22T08:05:00;10.30;99.90
47162;DHT22;32921;53.256;8.198;2024-03-22T08:07:27;10.30;99.90
47162;DHT22;32921;53.256;8.198;2024-03-22T08:09:52;10.30;99.90
47162;DHT22;32921;53.256;8.198;2024-03-22T08:12:18;10.30;99.90
47162;DHT22;32921;53.256;8.198;2024-03-22T08:14:45;10.20;99.90
47162;DHT22;32921;53.256;8.198;2024-03-22T08:17:10;10.20;99.90
47162;DHT22;32921;53.256;8.198;2024-03-22T08:19:37;10.20;99.90
47162;DHT22;32921;53.256;8.198;2024-03-22T08:22:03;10.20;99.90
47162;DHT22;32921;53.256;8.198;2024-03-22T08:24:29;10.30;99.90
47162;DHT22;32921;53.256;8.198;2024-03-22T08:26:55;10.20;99.90
47162;DHT22;32921;53.256;8.198;2024-03-22T08:29:21;10.20;99.90
47162;DHT22;32921;53.256;8.198;2024-03-22T08:31:47;10.20;99.90
47162;DHT22;32921;53.256;8.198;2024-03-22T08:34:12;10.20;99.90
47162;DHT22;32921;53.256;8.198;2024-03-22T08:36:38;10.20;99.90
47162;DHT22;32921;53.256;8.198;2024-03-22T08:39:04;10.20;99.90
47162;DHT22;32921;53.256;8.198;2024-03-22T08:41:32;10.30;99.90
47162;DHT22;32921;53.256;8.198;2024-03-22T08:43:57;10.20;99.90
47162;DHT22;32921;53.256;8.198;2024-03-22T08:46:23;10.10;99.90
47162;DHT22;32921;53.256;8.198;2024-03-22T08:48:51;10.20;99.90
47162;DHT22;32921;53.256;8.198;2024-03-22T08:51:17;10.20;99.90
47162;DHT22;32921;53.256;8.198;2024-03-22T08:53:43;10.20;99.90
47162;DHT22;32921;53.256;8.198;2024-03-22T08:56:08;10.10;99.90
47162;DHT22;32921;53.256;8.198;2024-03-22T08:58:34;10.10;99.90
47162;DHT22;32921;53.256;8.198;2024-03-22T09:00:59;10.10;99.90
47162;DHT22;32921;53.256;8.198;2024-03-22T09:03:25;10.10;99.90
47162;DHT22;32921;53.256;8.198;2024-03-22T09:05:53;10.30;99.90
47162;DHT22;32921;53.256;8.198;2024-03-22T09:08:20;10.30;99.90
47162;DHT22;32921;53.256;8.198;2024-03-22T09:10:47;10.20;99.90
47162;DHT22;32921;53.256;8.198;2024-03-22T09:13:13;10.20;99.90
47162;DHT22;32921;53.256;8.198;2024-03-22T09:15:39;10.30;99.90
47162;DHT22;32921;53.256;8.198;2024-03-22T09:18:05;10.30;99.90
47162;DHT22;32921;53.256;8.198;2024-03-22T09:20:31;10.30;99.90
47162;DHT22;32921;53.256;8.198;2024-03-22T09:22:57;10.50;99.90
47162;DHT22;32921;53.256;8.198;2024-03-22T09:25:23;10.50;99.90
47162;DHT22;32921;53.256;8.198;2024-03-22T09:27:50;10.50;99.90
47162;DHT22;32921;53.256;8.198;2024-03-22T09:30:15;10.60;99.90
47162;DHT22;32921;53.256;8.198;2024-03-22T09:32:41;10.70;99.90
47162;DHT22;32921;53.256;8.198;2024-03-22T09:35:08;10.70;99.90
47162;DHT22;32921;53.256;8.198;2024-03-22T09:37:34;10.70;99.90
47162;DHT22;32921;53.256;8.198;2024-03-22T09:39:59;10.70;99.90
47162;DHT22;32921;53.256;8.198;2024-03-22T09:42:25;10.70;99.90
47162;DHT22;32921;53.256;8.198;2024-03-22T09:44:51;10.80;99.90
47162;DHT22;32921;53.256;8.198;2024-03-22T09:47:18;10.60;99.90
47162;DHT22;32921;53.256;8.198;2024-03-22T09:49:45;10.70;99.90
47162;DHT22;32921;53.256;8.198;2024-03-22T09:52:13;10.70;99.90
47162;DHT22;32921;53.256;8.198;2024-03-22T09:54:41;10.60;99.90
47162;DHT22;32921;53.256;8.198;2024-03-22T09:57:11;10.70;99.90
47162;DHT22;32921;53.256;8.198;2024-03-22T09:59:38;10.70;99.90
47162;DHT22;32921;53.256;8.198;2024-03-22T10:02:04;10.90;99.90
47162;DHT22;32921;53.256;8.198;2024-03-22T10:04:30;10.80;99.90
47162;DHT22;32921;53.256;8.198;2024-03-22T10:06:56;10.70;99.90
47162;DHT22;32921;53.256;8.198;2024-03-22T10:09:28;10.60;99.90
47162;DHT22;32921;53.256;8.198;2024-03-22T10:11:55;10.70;99.90
47162;DHT22;32921;53.256;8.198;2024-03-22T10:14:21;10.60;99.90
47162;DHT22;32921;53.256;8.198;2024-03-22T10:16:47;10.60;99.90
47162;DHT22;32921;53.256;8.198;2024-03-22T10:19:12;10.70;99.90
47162;DHT22;32921;53.256;8.198;2024-03-22T10:21:38;10.70;99.90
47162;DHT22;32921;53.256;8.198;2024-03-22T10:24:04;10.60;99.90
47162;DHT22;32921;53.256;8.198;2024-03-22T10:26:32;10.70;99.90
47162;DHT22;32921;53.256;8.198;2024-03-22T10:28:58;10.70;99.90
47162;DHT22;32921;53.256;8.198;2024-03-22T10:31:23;10.70;99.90
47162;DHT22;32921;53.256;8.198;2024-03-22T10:33:49;10.70;99.90
47162;DHT22;32921;53.256;8.198;2024-03-22T10:36:16;10.60;99.90
47162;DHT22;32921;53.256;8.198;2024-03-22T10:38:42;10.70;99.90
47162;DHT22;32921;53.256;8.198;2024-03-22T10:41:08;10.70;99.90
47162;DHT22;32921;53.256;8.198;2024-03-22T10:43:35;10.70;99.90
47162;DHT22;32921;53.256;8.198;2024-03-22T10:46:02;10.60;99.90
47162;DHT22;32921;53.256;8.198;2024-03-22T10:48:30;10.60;99.90
47162;DHT22;32921;53.256;8.198;2024-03-22T10:51:00;10.60;99.90
47162;DHT22;32921;53.256;8.198;2024-03-22T10:53:28;10.60;99.90
47162;DHT22;32921;53.256;8.198;2024-03-22T10:55:57;10.70;99.90
47162;DHT22;32921;53.256;8.198;2024-03-22T10:58:25;10.70;99.90
47162;DHT22;32921;53.256;8.198;2024-03-22T11:00:52;10.80;99.90
47162;DHT22;32921;53.256;8.198;2024-03-22T11:03:21;10.70;99.90
47162;DHT22;32921;53.256;8.198;2024-03-22T11:05:50;10.80;99.90
47162;DHT22;32921;53.256;8.198;2024-03-22T11:08:26;10.90;99.90
47162;DHT22;32921;53.256;8.198;2024-03-22T11:10:52;10.90;99.90
47162;DHT22;32921;53.256;8.198;2024-03-22T11:13:18;10.90;99.90
47162;DHT22;32921;53.256;8.198;2024-03-22T11:15:47;11.00;99.90
47162;DHT22;32921;53.256;8.198;2024-03-22T11:18:13;11.10;99.90
47162;DHT22;32921;53.256;8.198;2024-03-22T11:20:38;11.10;99.90
47162;DHT22;32921;53.256;8.198;2024-03-22T11:23:05;11.00;99.90
47162;DHT22;32921;53.256;8.198;2024-03-22T11:25:34;10.90;99.90
47162;DHT22;32921;53.256;8.198;2024-03-22T11:28:00;10.90;99.90
47162;DHT22;32921;53.256;8.198;2024-03-22T11:30:31;10.80;99.90
47162;DHT22;32921;53.256;8.198;2024-03-22T11:32:57;10.70;99.90
47162;DHT22;32921;53.256;8.198;2024-03-22T11:35:23;10.70;99.90
47162;DHT22;32921;53.256;8.198;2024-03-22T11:37:50;10.80;99.90
47162;DHT22;32921;53.256;8.198;2024-03-22T11:40:16;10.90;99.90
47162;DHT22;32921;53.256;8.198;2024-03-22T11:42:45;11.10;99.90
47162;DHT22;32921;53.256;8.198;2024-03-22T11:45:14;11.10;99.90
47162;DHT22;32921;53.256;8.198;2024-03-22T11:47:40;11.00;99.90
47162;DHT22;32921;53.256;8.198;2024-03-22T11:50:06;10.90;99.90
47162;DHT22;32921;53.256;8.198;2024-03-22T11:52:32;11.00;99.90
47162;DHT22;32921;53.256;8.198;2024-03-22T11:54:58;10.90;99.90
47162;DHT22;32921;53.256;8.198;2024-03-22T11:57:24;10.80;99.90
47162;DHT22;32921;53.256;8.198;2024-03-22T11:59:50;10.80;99.90
47162;DHT22;32921;53.256;8.198;2024-03-22T12:02:16;11.00;99.90
47162;DHT22;32921;53.256;8.198;2024-03-22T12:04:43;11.00;99.90
47162;DHT22;32921;53.256;8.198;2024-03-22T12:07:18;11.00;99.90
47162;DHT22;32921;53.256;8.198;2024-03-22T12:09:44;11.10;99.90
47162;DHT22;32921;53.256;8.198;2024-03-22T12:12:12;11.00;99.90
47162;DHT22;32921;53.256;8.198;2024-03-22T12:14:38;11.00;99.90
47162;DHT22;32921;53.256;8.198;2024-03-22T12:17:05;10.90;99.90
47162;DHT22;32921;53.256;8.198;2024-03-22T12:19:31;11.00;99.90
47162;DHT22;32921;53.256;8.198;2024-03-22T12:21:56;11.10;99.90
47162;DHT22;32921;53.256;8.198;2024-03-22T12:24:23;10.90;99.90
47162;DHT22;32921;53.256;8.198;2024-03-22T12:26:49;10.90;99.90
47162;DHT22;32921;53.256;8.198;2024-03-22T12:29:18;10.80;99.90
47162;DHT22;32921;53.256;8.198;2024-03-22T12:31:44;10.80;99.90
47162;DHT22;32921;53.256;8.198;2024-03-22T12:34:10;10.90;99.90
47162;DHT22;32921;53.256;8.198;2024-03-22T12:36:35;11.00;99.90
47162;DHT22;32921;53.256;8.198;2024-03-22T12:39:01;11.30;99.90
47162;DHT22;32921;53.256;8.198;2024-03-22T12:41:29;11.40;99.90
47162;DHT22;32921;53.256;8.198;2024-03-22T12:43:55;11.40;99.90
47162;DHT22;32921;53.256;8.198;2024-03-22T12:46:21;11.40;99.90
47162;DHT22;32921;53.256;8.198;2024-03-22T12:48:46;11.40;99.90
47162;DHT22;32921;53.256;8.198;2024-03-22T12:51:12;11.40;99.90
47162;DHT22;32921;53.256;8.198;2024-03-22T12:53:38;11.40;99.90
47162;DHT22;32921;53.256;8.198;2024-03-22T12:56:04;11.20;99.90
47162;DHT22;32921;53.256;8.198;2024-03-22T12:58:30;11.10;99.90
47162;DHT22;32921;53.256;8.198;2024-03-22T13:00:57;11.00;99.90
47162;DHT22;32921;53.256;8.198;2024-03-22T13:03:22;10.90;99.90
47162;DHT22;32921;53.256;8.198;2024-03-22T13:05:48;11.00;99.90
47162;DHT22;32921;53.256;8.198;2024-03-22T13:08:13;11.10;99.90
47162;DHT22;32921;53.256;8.198;2024-03-22T13:10:39;11.20;99.90
47162;DHT22;32921;53.256;8.198;2024-03-22T13:13:09;11.10;99.90
47162;DHT22;32921;53.256;8.198;2024-03-22T13:15:34;11.00;99.90
47162;DHT22;32921;53.256;8.198;2024-03-22T13:18:02;11.00;99.90
47162;DHT22;32921;53.256;8.198;2024-03-22T13:20:28;10.90;99.90
47162;DHT22;32921;53.256;8.198;2024-03-22T13:22:53;10.90;99.90
47162;DHT22;32921;53.256;8.198;2024-03-22T13:25:19;11.00;99.90
47162;DHT22;32921;53.256;8.198;2024-03-22T13:27:45;11.00;99.90
47162;DHT22;32921;53.256;8.198;2024-03-22T13:30:10;10.90;99.90
47162;DHT22;32921;53.256;8.198;2024-03-22T13:32:37;10.90;99.90
47162;DHT22;32921;53.256;8.198;2024-03-22T13:35:04;11.10;99.90
47162;DHT22;32921;53.256;8.198;2024-03-22T13:37:30;11.10;99.90
47162;DHT22;32921;53.256;8.198;2024-03-22T13:39:56;11.10;99.90
47162;DHT22;32921;53.256;8.198;2024-03-22T13:42:21;11.20;99.90
47162;DHT22;32921;53.256;8.198;2024-03-22T13:44:47;11.20;99.90
47162;DHT22;32921;53.256;8.198;2024-03-22T13:47:12;11.10;99.90
47162;DHT22;32921;53.256;8.198;2024-03-22T13:49:38;11.10;99.90
47162;DHT22;32921;53.256;8.198;2024-03-22T13:52:07;10.80;99.90
47162;DHT22;32921;53.256;8.198;2024-03-22T13:54:32;10.60;99.90
47162;DHT22;32921;53.256;8.198;2024-03-22T13:56:58;10.50;99.90
47162;DHT22;32921;53.256;8.198;2024-03-22T13:59:23;10.50;99.90
47162;DHT22;32921;53.256;8.198;2024-03-22T14:01:49;10.50;99.90
47162;DHT22;32921;53.256;8.198;2024-03-22T14:04:14;10.30;99.90
47162;DHT22;32921;53.256;8.198;2024-03-22T14:06:40;10.20;99.90
47162;DHT22;32921;53.256;8.198;2024-03-22T14:09:07;10.10;99.90
47162;DHT22;32921;53.256;8.198;2024-03-22T14:11:35;10.10;99.90
47162;DHT22;32921;53.256;8.198;2024-03-22T14:14:01;10.10;99.90
47162;DHT22;32921;53.256;8.198;2024-03-22T14:16:27;9.90;99.90
47162;DHT22;32921;53.256;8.198;2024-03-22T14:18:53;9.80;99.90
47162;DHT22;32921;53.256;8.198;2024-03-22T14:21:19;9.80;99.90
47162;DHT22;32921;53.256;8.198;2024-03-22T14:23:49;9.90;99.90
47162;DHT22;32921;53.256;8.198;2024-03-22T14:26:16;9.90;99.90
47162;DHT22;32921;53.256;8.198;2024-03-22T14:28:42;10.00;99.90
47162;DHT22;32921;53.256;8.198;2024-03-22T14:31:08;9.90;99.90
47162;DHT22;32921;53.256;8.198;2024-03-22T14:33:38;9.90;99.90
47162;DHT22;32921;53.256;8.198;2024-03-22T14:36:05;10.00;99.90
47162;DHT22;32921;53.256;8.198;2024-03-22T14:38:32;10.10;99.90
47162;DHT22;32921;53.256;8.198;2024-03-22T14:40:58;10.00;99.90
47162;DHT22;32921;53.256;8.198;2024-03-22T14:43:24;10.00;99.90
47162;DHT22;32921;53.256;8.198;2024-03-22T14:45:54;9.90;99.90
47162;DHT22;32921;53.256;8.198;2024-03-22T14:48:23;9.80;99.90
47162;DHT22;32921;53.256;8.198;2024-03-22T14:50:49;9.80;99.90
47162;DHT22;32921;53.256;8.198;2024-03-22T14:53:16;9.90;99.90
47162;DHT22;32921;53.256;8.198;2024-03-22T14:55:54;9.90;99.90
47162;DHT22;32921;53.256;8.198;2024-03-22T14:58:24;9.90;99.90
47162;DHT22;32921;53.256;8.198;2024-03-22T15:00:53;9.80;99.90
47162;DHT22;32921;53.256;8.198;2024-03-22T15:03:20;9.90;99.90
47162;DHT22;32921;53.256;8.198;2024-03-22T15:05:45;9.70;99.90
47162;DHT22;32921;53.256;8.198;2024-03-22T15:08:11;9.60;99.90
47162;DHT22;32921;53.256;8.198;2024-03-22T15:10:37;9.50;99.90
47162;DHT22;32921;53.256;8.198;2024-03-22T15:13:03;9.50;99.90
47162;DHT22;32921;53.256;8.198;2024-03-22T15:15:29;9.40;99.90
47162;DHT22;32921;53.256;8.198;2024-03-22T15:17:54;9.50;99.90
47162;DHT22;32921;53.256;8.198;2024-03-22T15:20:20;9.40;99.90
47162;DHT22;32921;53.256;8.198;2024-03-22T15:22:46;9.50;99.90
47162;DHT22;32921;53.256;8.198;2024-03-22T15:25:11;9.50;99.90
47162;DHT22;32921;53.256;8.198;2024-03-22T15:27:37;9.50;99.90